sensor_id;sensor_type;location;lat;lon;timestamp;temperature;humidity
35746;DHT22;21870;42.812;74.628;2023-03-14T00:02:08;7.10;99.90
35746;DHT22;21870;42.812;74.628;2023-03-14T00:04:36;7.20;99.90
35746;DHT22;21870;42.812;74.628;2023-03-14T00:07:02;7.00;99.90
35746;DHT22;21870;42.812;74.628;2023-03-14T00:09:28;7.00;99.90
35746;DHT22;21870;42.812;74.628;2023-03-14T00:11:56;7.00;99.90
35746;DHT22;21870;42.812;74.628;2023-03-14T00:14:23;7.00;99.90
35746;DHT22;21870;42.812;74.628;2023-03-14T00:16:49;7.00;99.90
35746;DHT22;21870;42.812;74.628;2023-03-14T00:19:15;7.00;99.90
35746;DHT22;21870;42.812;74.628;2023-03-14T00:21:41;7.10;99.90
35746;DHT22;21870;42.812;74.628;2023-03-14T00:24:08;7.00;99.90
35746;DHT22;21870;42.812;74.628;2023-03-14T00:26:34;7.10;99.90
35746;DHT22;21870;42.812;74.628;2023-03-14T00:29:00;7.00;99.90
35746;DHT22;21870;42.812;74.628;2023-03-14T00:31:26;7.10;99.90
35746;DHT22;21870;42.812;74.628;2023-03-14T00:33:53;7.20;99.90
35746;DHT22;21870;42.812;74.628;2023-03-14T00:36:20;7.20;99.90
35746;DHT22;21870;42.812;74.628;2023-03-14T00:38:48;7.20;99.90
35746;DHT22;21870;42.812;74.628;2023-03-14T00:41:19;7.20;99.90
35746;DHT22;21870;42.812;74.628;2023-03-14T00:43:45;7.20;99.90
35746;DHT22;21870;42.812;74.628;2023-03-14T00:46:12;7.10;99.90
35746;DHT22;21870;42.812;74.628;2023-03-14T00:48:38;7.10;99.90
35746;DHT22;21870;42.812;74.628;2023-03-14T00:51:08;7.00;99.90
35746;DHT22;21870;42.812;74.628;2023-03-14T00:53:38;6.90;99.90
35746;DHT22;21870;42.812;74.628;2023-03-14T00:56:09;6.90;99.90
35746;DHT22;21870;42.812;74.628;2023-03-14T00:58:37;6.90;99.90
35746;DHT22;21870;42.812;74.628;2023-03-14T01:01:12;6.90;99.90
35746;DHT22;21870;42.812;74.628;2023-03-14T01:03:38;6.90;99.90
35746;DHT22;21870;42.812;74.628;2023-03-14T01:06:25;6.90;99.90
35746;DHT22;21870;42.812;74.628;2023-03-14T01:08:52;6.90;99.90
35746;DHT22;21870;42.812;74.628;2023-03-14T01:11:21;6.90;99.90
35746;DHT22;21870;42.812;74.628;2023-03-14T01:13:48;6.90;99.90
35746;DHT22;21870;42.812;74.628;2023-03-14T01:16:14;6.90;99.90
35746;DHT22;21870;42.812;74.628;2023-03-14T01:18:42;6.80;99.90
35746;DHT22;21870;42.812;74.628;2023-03-14T01:21:21;6.70;99.90
35746;DHT22;21870;42.812;74.628;2023-03-14T01:23:48;6.70;99.90
35746;DHT22;21870;42.812;74.628;2023-03-14T01:26:17;6.60;99.90
35746;DHT22;21870;42.812;74.628;2023-03-14T01:28:45;6.60;99.90
35746;DHT22;21870;42.812;74.628;2023-03-14T01:31:11;6.50;99.90
35746;DHT22;21870;42.812;74.628;2023-03-14T01:33:39;6.40;99.90
35746;DHT22;21870;42.812;74.628;2023-03-14T01:36:06;6.40;99.90
35746;DHT22;21870;42.812;74.628;2023-03-14T01:38:33;6.40;99.90
35746;DHT22;21870;42.812;74.628;2023-03-14T01:41:00;6.50;99.90
35746;DHT22;21870;42.812;74.628;2023-03-14T01:43:27;6.40;99.90
35746;DHT22;21870;42.812;74.628;2023-03-14T01:48:37;6.50;99.90
35746;DHT22;21870;42.812;74.628;2023-03-14T01:51:08;6.50;99.90
35746;DHT22;21870;42.812;74.628;2023-03-14T01:53:36;6.60;99.90
35746;DHT22;21870;42.812;74.628;2023-03-14T01:56:03;6.80;99.90
35746;DHT22;21870;42.812;74.628;2023-03-14T01:58:31;6.90;99.90
35746;DHT22;21870;42.812;74.628;2023-03-14T02:01:01;6.90;99.90
35746;DHT22;21870;42.812;74.628;2023-03-14T02:03:30;7.00;99.90
35746;DHT22;21870;42.812;74.628;2023-03-14T02:05:59;7.10;99.90
35746;DHT22;21870;42.812;74.628;2023-03-14T02:08:29;7.20;99.90
35746;DHT22;21870;42.812;74.628;2023-03-14T02:10:56;7.30;99.90
35746;DHT22;21870;42.812;74.628;2023-03-14T02:13:22;7.30;99.90
35746;DHT22;21870;42.812;74.628;2023-03-14T02:15:55;7.40;99.90
35746;DHT22;21870;42.812;74.628;2023-03-14T02:18:21;7.60;99.90
35746;DHT22;21870;42.812;74.628;2023-03-14T02:23:16;7.70;99.90
35746;DHT22;21870;42.812;74.628;2023-03-14T02:26:08;7.90;99.90
35746;DHT22;21870;42.812;74.628;2023-03-14T02:28:35;8.00;99.90
35746;DHT22;21870;42.812;74.628;2023-03-14T02:31:01;8.00;99.90
35746;DHT22;21870;42.812;74.628;2023-03-14T02:33:27;8.10;99.90
35746;DHT22;21870;42.812;74.628;2023-03-14T02:36:00;8.20;99.90
35746;DHT22;21870;42.812;74.628;2023-03-14T02:39:39;8.30;99.90
35746;DHT22;21870;42.812;74.628;2023-03-14T02:41:33;8.40;99.90
35746;DHT22;21870;42.812;74.628;2023-03-14T02:43:59;8.60;99.90
35746;DHT22;21870;42.812;74.628;2023-03-14T02:46:25;8.80;99.90
35746;DHT22;21870;42.812;74.628;2023-03-14T02:49:03;9.00;99.90
35746;DHT22;21870;42.812;74.628;2023-03-14T02:51:31;9.10;99.90
35746;DHT22;21870;42.812;74.628;2023-03-14T02:53:58;9.20;99.90
35746;DHT22;21870;42.812;74.628;2023-03-14T02:56:24;9.50;99.90
35746;DHT22;21870;42.812;74.628;2023-03-14T02:58:50;9.60;99.90
35746;DHT22;21870;42.812;74.628;2023-03-14T03:01:16;9.80;99.90
35746;DHT22;21870;42.812;74.628;2023-03-14T03:03:44;10.00;99.90
35746;DHT22;21870;42.812;74.628;2023-03-14T03:06:10;10.20;99.90
35746;DHT22;21870;42.812;74.628;2023-03-14T03:08:36;10.40;99.90
35746;DHT22;21870;42.812;74.628;2023-03-14T03:11:02;10.50;99.90
35746;DHT22;21870;42.812;74.628;2023-03-14T03:13:31;10.70;99.90
35746;DHT22;21870;42.812;74.628;2023-03-14T03:15:57;10.90;99.90
35746;DHT22;21870;42.812;74.628;2023-03-14T03:18:23;11.10;99.90
35746;DHT22;21870;42.812;74.628;2023-03-14T03:20:50;11.30;99.90
35746;DHT22;21870;42.812;74.628;2023-03-14T03:23:16;11.40;99.90
35746;DHT22;21870;42.812;74.628;2023-03-14T03:25:42;11.60;99.90
35746;DHT22;21870;42.812;74.628;2023-03-14T03:28:12;11.70;99.90
35746;DHT22;21870;42.812;74.628;2023-03-14T03:30:41;11.80;99.90
35746;DHT22;21870;42.812;74.628;2023-03-14T03:33:08;12.00;99.90
35746;DHT22;21870;42.812;74.628;2023-03-14T03:35:41;12.30;99.90
35746;DHT22;21870;42.812;74.628;2023-03-14T03:38:07;12.30;99.90
35746;DHT22;21870;42.812;74.628;2023-03-14T03:40:33;12.40;99.90
35746;DHT22;21870;42.812;74.628;2023-03-14T03:43:00;12.40;99.90
35746;DHT22;21870;42.812;74.628;2023-03-14T03:45:26;12.40;99.90
35746;DHT22;21870;42.812;74.628;2023-03-14T03:47:52;12.50;99.90
35746;DHT22;21870;42.812;74.628;2023-03-14T03:50:20;12.70;99.90
35746;DHT22;21870;42.812;74.628;2023-03-14T03:52:47;12.90;99.90
35746;DHT22;21870;42.812;74.628;2023-03-14T03:55:13;13.10;99.90
35746;DHT22;21870;42.812;74.628;2023-03-14T03:57:39;13.20;99.90
35746;DHT22;21870;42.812;74.628;2023-03-14T04:00:06;13.20;99.90
35746;DHT22;21870;42.812;74.628;2023-03-14T04:02:34;13.40;99.90
35746;DHT22;21870;42.812;74.628;2023-03-14T04:05:00;13.40;99.90
35746;DHT22;21870;42.812;74.628;2023-03-14T04:07:26;13.50;99.90
35746;DHT22;21870;42.812;74.628;2023-03-14T04:09:53;13.70;99.90
35746;DHT22;21870;42.812;74.628;2023-03-14T04:12:19;13.90;99.90
35746;DHT22;21870;42.812;74.628;2023-03-14T04:14:45;13.90;99.90
35746;DHT22;21870;42.812;74.628;2023-03-14T04:17:12;14.10;99.90
35746;DHT22;21870;42.812;74.628;2023-03-14T04:19:38;14.30;99.90
35746;DHT22;21870;42.812;74.628;2023-03-14T04:22:04;14.20;99.90
35746;DHT22;21870;42.812;74.628;2023-03-14T04:24:30;14.50;99.90
35746;DHT22;21870;42.812;74.628;2023-03-14T04:26:56;14.50;99.90
35746;DHT22;21870;42.812;74.628;2023-03-14T04:29:23;14.70;99.90
35746;DHT22;21870;42.812;74.628;2023-03-14T04:31:49;14.60;99.90
35746;DHT22;21870;42.812;74.628;2023-03-14T04:34:15;14.60;99.90
35746;DHT22;21870;42.812;74.628;2023-03-14T04:36:44;14.70;99.90
35746;DHT22;21870;42.812;74.628;2023-03-14T04:39:10;14.80;99.90
35746;DHT22;21870;42.812;74.628;2023-03-14T04:41:36;14.80;99.90
35746;DHT22;21870;42.812;74.628;2023-03-14T04:44:02;14.80;99.90
35746;DHT22;21870;42.812;74.628;2023-03-14T04:46:28;15.00;99.90
35746;DHT22;21870;42.812;74.628;2023-03-14T04:48:54;15.00;99.90
35746;DHT22;21870;42.812;74.628;2023-03-14T04:51:22;15.20;99.90
35746;DHT22;21870;42.812;74.628;2023-03-14T04:53:49;15.30;99.90
35746;DHT22;21870;42.812;74.628;2023-03-14T04:56:15;15.40;99.90
35746;DHT22;21870;42.812;74.628;2023-03-14T04:58:41;15.30;99.90
35746;DHT22;21870;42.812;74.628;2023-03-14T05:01:07;15.50;99.90
35746;DHT22;21870;42.812;74.628;2023-03-14T05:03:33;15.60;99.90
35746;DHT22;21870;42.812;74.628;2023-03-14T05:06:01;15.70;99.90
35746;DHT22;21870;42.812;74.628;2023-03-14T05:08:27;15.90;99.90
35746;DHT22;21870;42.812;74.628;2023-03-14T05:10:57;16.10;99.90
35746;DHT22;21870;42.812;74.628;2023-03-14T05:13:24;16.30;99.90
35746;DHT22;21870;42.812;74.628;2023-03-14T05:15:50;16.40;99.90
35746;DHT22;21870;42.812;74.628;2023-03-14T05:18:18;16.60;99.90
35746;DHT22;21870;42.812;74.628;2023-03-14T05:20:44;16.70;99.90
35746;DHT22;21870;42.812;74.628;2023-03-14T05:23:10;17.00;99.90
35746;DHT22;21870;42.812;74.628;2023-03-14T05:25:36;17.20;99.90
35746;DHT22;21870;42.812;74.628;2023-03-14T05:28:02;17.10;99.90
35746;DHT22;21870;42.812;74.628;2023-03-14T05:30:29;17.20;99.90
35746;DHT22;21870;42.812;74.628;2023-03-14T05:32:56;17.30;99.90
35746;DHT22;21870;42.812;74.628;2023-03-14T05:35:22;17.70;99.90
35746;DHT22;21870;42.812;74.628;2023-03-14T05:37:48;18.00;99.90
35746;DHT22;21870;42.812;74.628;2023-03-14T05:40:14;18.20;99.90
35746;DHT22;21870;42.812;74.628;2023-03-14T05:42:41;18.40;99.90
35746;DHT22;21870;42.812;74.628;2023-03-14T05:45:07;18.50;99.90
35746;DHT22;21870;42.812;74.628;2023-03-14T05:47:33;18.40;99.90
35746;DHT22;21870;42.812;74.628;2023-03-14T05:49:59;18.30;99.90
35746;DHT22;21870;42.812;74.628;2023-03-14T05:52:25;18.70;99.90
35746;DHT22;21870;42.812;74.628;2023-03-14T05:54:51;18.60;99.90
35746;DHT22;21870;42.812;74.628;2023-03-14T05:57:17;18.80;99.90
35746;DHT22;21870;42.812;74.628;2023-03-14T05:59:43;18.90;99.90
35746;DHT22;21870;42.812;74.628;2023-03-14T06:02:09;19.10;99.90
35746;DHT22;21870;42.812;74.628;2023-03-14T06:04:35;19.20;99.90
35746;DHT22;21870;42.812;74.628;2023-03-14T06:07:02;19.20;99.90
35746;DHT22;21870;42.812;74.628;2023-03-14T06:09:28;19.10;99.90
35746;DHT22;21870;42.812;74.628;2023-03-14T06:11:54;19.10;99.90
35746;DHT22;21870;42.812;74.628;2023-03-14T06:14:20;19.00;99.90
35746;DHT22;21870;42.812;74.628;2023-03-14T06:16:46;19.10;99.90
35746;DHT22;21870;42.812;74.628;2023-03-14T06:19:14;19.40;99.90
35746;DHT22;21870;42.812;74.628;2023-03-14T06:21:40;19.30;99.90
35746;DHT22;21870;42.812;74.628;2023-03-14T06:24:06;19.50;99.90
35746;DHT22;21870;42.812;74.628;2023-03-14T06:26:33;19.50;99.90
35746;DHT22;21870;42.812;74.628;2023-03-14T06:28:59;19.50;99.90
35746;DHT22;21870;42.812;74.628;2023-03-14T06:31:30;19.70;99.90
35746;DHT22;21870;42.812;74.628;2023-03-14T06:33:56;19.80;99.90
35746;DHT22;21870;42.812;74.628;2023-03-14T06:36:22;19.90;99.90
35746;DHT22;21870;42.812;74.628;2023-03-14T06:38:48;19.90;99.90
35746;DHT22;21870;42.812;74.628;2023-03-14T06:41:14;19.90;99.90
35746;DHT22;21870;42.812;74.628;2023-03-14T06:43:41;19.90;99.90
35746;DHT22;21870;42.812;74.628;2023-03-14T06:46:07;20.20;99.90
35746;DHT22;21870;42.812;74.628;2023-03-14T06:48:33;20.20;99.90
35746;DHT22;21870;42.812;74.628;2023-03-14T06:50:59;20.20;99.90
35746;DHT22;21870;42.812;74.628;2023-03-14T06:53:25;20.40;99.90
35746;DHT22;21870;42.812;74.628;2023-03-14T06:55:51;20.70;99.90
35746;DHT22;21870;42.812;74.628;2023-03-14T06:58:17;20.80;99.90
35746;DHT22;21870;42.812;74.628;2023-03-14T07:00:43;20.90;99.90
35746;DHT22;21870;42.812;74.628;2023-03-14T07:03:10;21.00;99.90
35746;DHT22;21870;42.812;74.628;2023-03-14T07:05:36;21.00;99.90
35746;DHT22;21870;42.812;74.628;2023-03-14T07:08:02;21.10;99.90
35746;DHT22;21870;42.812;74.628;2023-03-14T07:10:28;21.10;99.90
35746;DHT22;21870;42.812;74.628;2023-03-14T07:12:54;21.10;99.90
35746;DHT22;21870;42.812;74.628;2023-03-14T07:15:20;21.10;99.90
35746;DHT22;21870;42.812;74.628;2023-03-14T07:17:46;21.40;99.90
35746;DHT22;21870;42.812;74.628;2023-03-14T07:20:13;21.40;99.90
35746;DHT22;21870;42.812;74.628;2023-03-14T07:22:39;21.40;99.90
35746;DHT22;21870;42.812;74.628;2023-03-14T07:25:06;21.50;99.90
35746;DHT22;21870;42.812;74.628;2023-03-14T07:27:32;21.50;99.90
35746;DHT22;21870;42.812;74.628;2023-03-14T07:29:58;21.60;99.90
35746;DHT22;21870;42.812;74.628;2023-03-14T07:32:24;21.60;99.90
35746;DHT22;21870;42.812;74.628;2023-03-14T07:34:50;21.80;99.50
35746;DHT22;21870;42.812;74.628;2023-03-14T07:37:16;21.90;98.20
35746;DHT22;21870;42.812;74.628;2023-03-14T07:39:42;21.80;98.40
35746;DHT22;21870;42.812;74.628;2023-03-14T07:42:08;21.90;98.40
35746;DHT22;21870;42.812;74.628;2023-03-14T07:44:34;22.10;99.10
35746;DHT22;21870;42.812;74.628;2023-03-14T07:47:00;22.10;99.90
35746;DHT22;21870;42.812;74.628;2023-03-14T07:49:26;22.30;99.90
35746;DHT22;21870;42.812;74.628;2023-03-14T07:51:52;22.20;99.90
35746;DHT22;21870;42.812;74.628;2023-03-14T07:54:19;22.30;99.90
35746;DHT22;21870;42.812;74.628;2023-03-14T07:56:45;22.10;99.90
35746;DHT22;21870;42.812;74.628;2023-03-14T07:59:11;22.00;99.90
35746;DHT22;21870;42.812;74.628;2023-03-14T08:01:38;22.00;99.90
35746;DHT22;21870;42.812;74.628;2023-03-14T08:04:04;22.10;99.90
35746;DHT22;21870;42.812;74.628;2023-03-14T08:06:30;21.90;99.90
35746;DHT22;21870;42.812;74.628;2023-03-14T08:08:56;22.10;99.90
35746;DHT22;21870;42.812;74.628;2023-03-14T08:11:22;22.20;99.90
35746;DHT22;21870;42.812;74.628;2023-03-14T08:13:51;22.10;99.90
35746;DHT22;21870;42.812;74.628;2023-03-14T08:16:18;22.10;99.90
35746;DHT22;21870;42.812;74.628;2023-03-14T08:18:44;22.10;99.90
35746;DHT22;21870;42.812;74.628;2023-03-14T08:21:11;22.00;99.90
35746;DHT22;21870;42.812;74.628;2023-03-14T08:23:37;22.10;99.90
35746;DHT22;21870;42.812;74.628;2023-03-14T08:26:04;22.10;99.90
35746;DHT22;21870;42.812;74.628;2023-03-14T08:28:30;22.20;99.90
35746;DHT22;21870;42.812;74.628;2023-03-14T08:30:59;22.30;99.90
35746;DHT22;21870;42.812;74.628;2023-03-14T08:33:27;22.50;99.90
35746;DHT22;21870;42.812;74.628;2023-03-14T08:35:55;22.60;99.90
35746;DHT22;21870;42.812;74.628;2023-03-14T08:38:21;22.60;99.90
35746;DHT22;21870;42.812;74.628;2023-03-14T08:40:48;22.50;99.90
35746;DHT22;21870;42.812;74.628;2023-03-14T08:43:15;22.70;99.90
35746;DHT22;21870;42.812;74.628;2023-03-14T08:45:41;22.70;99.80
35746;DHT22;21870;42.812;74.628;2023-03-14T08:48:07;22.70;98.60
35746;DHT22;21870;42.812;74.628;2023-03-14T08:50:33;22.50;98.00
35746;DHT22;21870;42.812;74.628;2023-03-14T08:52:59;22.50;98.10
35746;DHT22;21870;42.812;74.628;2023-03-14T08:55:29;22.50;97.20
35746;DHT22;21870;42.812;74.628;2023-03-14T08:57:55;22.50;97.90
35746;DHT22;21870;42.812;74.628;2023-03-14T09:00:21;22.40;98.00
35746;DHT22;21870;42.812;74.628;2023-03-14T09:02:47;22.40;99.10
35746;DHT22;21870;42.812;74.628;2023-03-14T09:05:14;22.20;99.60
35746;DHT22;21870;42.812;74.628;2023-03-14T09:07:40;22.30;99.60
35746;DHT22;21870;42.812;74.628;2023-03-14T09:10:08;22.60;99.30
35746;DHT22;21870;42.812;74.628;2023-03-14T09:12:34;22.40;99.30
35746;DHT22;21870;42.812;74.628;2023-03-14T09:15:00;22.30;98.90
35746;DHT22;21870;42.812;74.628;2023-03-14T09:17:27;22.50;99.90
35746;DHT22;21870;42.812;74.628;2023-03-14T09:19:53;22.40;99.90
35746;DHT22;21870;42.812;74.628;2023-03-14T09:23:50;22.50;98.50
35746;DHT22;21870;42.812;74.628;2023-03-14T09:26:16;22.40;99.40
35746;DHT22;21870;42.812;74.628;2023-03-14T09:28:42;22.10;99.90
35746;DHT22;21870;42.812;74.628;2023-03-14T09:31:10;22.40;99.90
35746;DHT22;21870;42.812;74.628;2023-03-14T09:33:36;22.10;98.40
35746;DHT22;21870;42.812;74.628;2023-03-14T09:36:03;21.80;99.70
35746;DHT22;21870;42.812;74.628;2023-03-14T09:38:30;21.90;99.90
35746;DHT22;21870;42.812;74.628;2023-03-14T09:41:00;21.90;99.90
35746;DHT22;21870;42.812;74.628;2023-03-14T09:43:29;21.70;99.90
35746;DHT22;21870;42.812;74.628;2023-03-14T09:45:58;21.90;99.90
35746;DHT22;21870;42.812;74.628;2023-03-14T09:48:29;21.80;99.90
35746;DHT22;21870;42.812;74.628;2023-03-14T09:50:58;21.90;99.90
35746;DHT22;21870;42.812;74.628;2023-03-14T09:53:27;21.80;99.90
35746;DHT22;21870;42.812;74.628;2023-03-14T09:55:54;21.70;99.90
35746;DHT22;21870;42.812;74.628;2023-03-14T09:58:24;21.70;99.90
35746;DHT22;21870;42.812;74.628;2023-03-14T10:00:53;21.50;99.90
35746;DHT22;21870;42.812;74.628;2023-03-14T10:03:35;21.50;99.90
35746;DHT22;21870;42.812;74.628;2023-03-14T10:06:02;21.70;99.90
35746;DHT22;21870;42.812;74.628;2023-03-14T10:08:30;21.80;99.90
35746;DHT22;21870;42.812;74.628;2023-03-14T10:10:56;21.80;99.90
35746;DHT22;21870;42.812;74.628;2023-03-14T10:13:24;21.90;99.90
35746;DHT22;21870;42.812;74.628;2023-03-14T10:18:20;21.70;99.90
35746;DHT22;21870;42.812;74.628;2023-03-14T10:20:49;21.50;99.90
35746;DHT22;21870;42.812;74.628;2023-03-14T10:25:44;21.20;99.90
35746;DHT22;21870;42.812;74.628;2023-03-14T10:28:25;21.20;99.90
35746;DHT22;21870;42.812;74.628;2023-03-14T10:30:51;21.20;99.90
35746;DHT22;21870;42.812;74.628;2023-03-14T10:36:18;21.40;99.90
35746;DHT22;21870;42.812;74.628;2023-03-14T10:38:45;21.40;99.90
35746;DHT22;21870;42.812;74.628;2023-03-14T10:41:37;21.60;99.90
35746;DHT22;21870;42.812;74.628;2023-03-14T10:44:12;21.70;99.90
35746;DHT22;21870;42.812;74.628;2023-03-14T10:46:38;21.60;99.90
35746;DHT22;21870;42.812;74.628;2023-03-14T10:49:05;21.50;99.90
35746;DHT22;21870;42.812;74.628;2023-03-14T10:51:32;21.30;99.90
35746;DHT22;21870;42.812;74.628;2023-03-14T10:54:14;21.00;99.90
35746;DHT22;21870;42.812;74.628;2023-03-14T10:56:44;20.90;99.90
35746;DHT22;21870;42.812;74.628;2023-03-14T10:59:15;21.00;99.90
35746;DHT22;21870;42.812;74.628;2023-03-14T11:02:03;21.00;99.90
35746;DHT22;21870;42.812;74.628;2023-03-14T11:07:33;20.70;99.90
35746;DHT22;21870;42.812;74.628;2023-03-14T11:10:23;20.70;99.90
35746;DHT22;21870;42.812;74.628;2023-03-14T11:15:35;20.70;99.90
35746;DHT22;21870;42.812;74.628;2023-03-14T11:32:29;20.20;99.90
35746;DHT22;21870;42.812;74.628;2023-03-14T11:34:59;20.10;99.90
35746;DHT22;21870;42.812;74.628;2023-03-14T11:37:36;19.90;99.90
35746;DHT22;21870;42.812;74.628;2023-03-14T11:40:25;19.90;99.90
35746;DHT22;21870;42.812;74.628;2023-03-14T11:43:17;19.90;99.90
35746;DHT22;21870;42.812;74.628;2023-03-14T11:45:48;19.60;99.90
35746;DHT22;21870;42.812;74.628;2023-03-14T11:51:03;19.40;99.90
35746;DHT22;21870;42.812;74.628;2023-03-14T11:53:43;19.30;99.90
35746;DHT22;21870;42.812;74.628;2023-03-14T11:56:22;19.30;99.90
35746;DHT22;21870;42.812;74.628;2023-03-14T11:58:58;19.20;99.90
35746;DHT22;21870;42.812;74.628;2023-03-14T12:01:34;18.90;99.90
35746;DHT22;21870;42.812;74.628;2023-03-14T12:04:21;19.00;99.90
35746;DHT22;21870;42.812;74.628;2023-03-14T12:06:51;18.80;99.90
35746;DHT22;21870;42.812;74.628;2023-03-14T12:09:20;18.80;99.90
35746;DHT22;21870;42.812;74.628;2023-03-14T12:11:58;18.70;99.90
35746;DHT22;21870;42.812;74.628;2023-03-14T12:19:41;18.30;99.90
35746;DHT22;21870;42.812;74.628;2023-03-14T12:22:28;18.20;99.90
35746;DHT22;21870;42.812;74.628;2023-03-14T12:25:00;18.10;99.90
35746;DHT22;21870;42.812;74.628;2023-03-14T12:30:30;18.00;99.90
35746;DHT22;21870;42.812;74.628;2023-03-14T12:33:26;17.80;99.90
35746;DHT22;21870;42.812;74.628;2023-03-14T12:36:00;17.60;99.90
35746;DHT22;21870;42.812;74.628;2023-03-14T12:43:47;17.10;99.90
35746;DHT22;21870;42.812;74.628;2023-03-14T12:46:26;17.00;99.90
35746;DHT22;21870;42.812;74.628;2023-03-14T12:51:35;16.80;99.90
35746;DHT22;21870;42.812;74.628;2023-03-14T12:54:43;16.60;99.90
35746;DHT22;21870;42.812;74.628;2023-03-14T12:57:25;16.40;99.90
35746;DHT22;21870;42.812;74.628;2023-03-14T13:00:29;16.20;99.90
35746;DHT22;21870;42.812;74.628;2023-03-14T13:02:50;16.20;99.90
35746;DHT22;21870;42.812;74.628;2023-03-14T13:05:22;16.10;99.90
35746;DHT22;21870;42.812;74.628;2023-03-14T13:10:28;15.90;99.90
35746;DHT22;21870;42.812;74.628;2023-03-14T13:13:02;15.70;99.90
35746;DHT22;21870;42.812;74.628;2023-03-14T13:15:42;15.50;99.90
35746;DHT22;21870;42.812;74.628;2023-03-14T13:18:35;15.50;99.90
35746;DHT22;21870;42.812;74.628;2023-03-14T13:23:37;15.10;99.90
35746;DHT22;21870;42.812;74.628;2023-03-14T13:26:11;15.00;99.90
35746;DHT22;21870;42.812;74.628;2023-03-14T13:28:39;14.90;99.90
35746;DHT22;21870;42.812;74.628;2023-03-14T13:31:05;14.80;99.90
35746;DHT22;21870;42.812;74.628;2023-03-14T13:33:33;14.70;99.90
35746;DHT22;21870;42.812;74.628;2023-03-14T13:36:04;14.60;99.90
35746;DHT22;21870;42.812;74.628;2023-03-14T13:38:36;14.60;99.90
35746;DHT22;21870;42.812;74.628;2023-03-14T13:41:07;14.40;99.90
35746;DHT22;21870;42.812;74.628;2023-03-14T13:43:36;14.30;99.90
35746;DHT22;21870;42.812;74.628;2023-03-14T13:46:05;14.20;99.90
35746;DHT22;21870;42.812;74.628;2023-03-14T13:48:43;14.20;99.90
35746;DHT22;21870;42.812;74.628;2023-03-14T13:51:12;14.10;99.90
35746;DHT22;21870;42.812;74.628;2023-03-14T13:53:44;14.00;99.90
35746;DHT22;21870;42.812;74.628;2023-03-14T13:56:11;14.00;99.90
35746;DHT22;21870;42.812;74.628;2023-03-14T13:58:39;13.90;99.90
35746;DHT22;21870;42.812;74.628;2023-03-14T14:01:22;13.90;99.90
35746;DHT22;21870;42.812;74.628;2023-03-14T14:03:53;13.70;99.90
35746;DHT22;21870;42.812;74.628;2023-03-14T14:06:36;13.50;99.90
35746;DHT22;21870;42.812;74.628;2023-03-14T14:09:14;13.50;99.90
35746;DHT22;21870;42.812;74.628;2023-03-14T14:14:47;13.30;99.90
35746;DHT22;21870;42.812;74.628;2023-03-14T14:17:19;13.10;99.90
35746;DHT22;21870;42.812;74.628;2023-03-14T14:19:47;13.00;99.90
35746;DHT22;21870;42.812;74.628;2023-03-14T14:22:14;12.60;99.90
35746;DHT22;21870;42.812;74.628;2023-03-14T14:24:40;12.50;99.90
35746;DHT22;21870;42.812;74.628;2023-03-14T14:27:16;12.60;99.90
35746;DHT22;21870;42.812;74.628;2023-03-14T14:29:43;12.40;99.90
35746;DHT22;21870;42.812;74.628;2023-03-14T14:32:12;12.30;99.90
35746;DHT22;21870;42.812;74.628;2023-03-14T14:34:47;12.20;99.90
35746;DHT22;21870;42.812;74.628;2023-03-14T14:37:27;12.20;99.90
35746;DHT22;21870;42.812;74.628;2023-03-14T14:39:59;12.20;99.90
35746;DHT22;21870;42.812;74.628;2023-03-14T14:42:40;12.20;99.90
35746;DHT22;21870;42.812;74.628;2023-03-14T14:45:13;12.10;99.90
35746;DHT22;21870;42.812;74.628;2023-03-14T14:47:55;12.00;99.90
35746;DHT22;21870;42.812;74.628;2023-03-14T14:50:55;12.00;99.90
35746;DHT22;21870;42.812;74.628;2023-03-14T14:55:45;12.10;99.90
35746;DHT22;21870;42.812;74.628;2023-03-14T15:01:19;12.10;99.90
35746;DHT22;21870;42.812;74.628;2023-03-14T15:03:48;12.00;99.90
35746;DHT22;21870;42.812;74.628;2023-03-14T15:06:16;11.90;99.90
35746;DHT22;21870;42.812;74.628;2023-03-14T15:08:47;11.80;99.90
35746;DHT22;21870;42.812;74.628;2023-03-14T15:11:25;11.80;99.90
35746;DHT22;21870;42.812;74.628;2023-03-14T15:13:52;11.80;99.90
35746;DHT22;21870;42.812;74.628;2023-03-14T15:16:21;11.70;99.90
35746;DHT22;21870;42.812;74.628;2023-03-14T15:18:54;11.70;99.90
35746;DHT22;21870;42.812;74.628;2023-03-14T15:21:22;11.60;99.90
35746;DHT22;21870;42.812;74.628;2023-03-14T15:23:48;11.70;99.90
35746;DHT22;21870;42.812;74.628;2023-03-14T15:26:17;11.70;99.90
35746;DHT22;21870;42.812;74.628;2023-03-14T15:28:44;11.60;99.90
35746;DHT22;21870;42.812;74.628;2023-03-14T15:31:16;11.60;99.90
35746;DHT22;21870;42.812;74.628;2023-03-14T15:33:44;11.60;99.90
35746;DHT22;21870;42.812;74.628;2023-03-14T15:38:45;11.60;99.90
35746;DHT22;21870;42.812;74.628;2023-03-14T15:41:11;11.60;99.90
35746;DHT22;21870;42.812;74.628;2023-03-14T15:43:37;11.60;99.90
35746;DHT22;21870;42.812;74.628;2023-03-14T15:46:03;11.60;99.90
35746;DHT22;21870;42.812;74.628;2023-03-14T15:48:32;11.60;99.90
35746;DHT22;21870;42.812;74.628;2023-03-14T15:50:58;11.60;99.90
35746;DHT22;21870;42.812;74.628;2023-03-14T15:53:24;11.60;99.90
35746;DHT22;21870;42.812;74.628;2023-03-14T15:55:50;11.40;99.90
35746;DHT22;21870;42.812;74.628;2023-03-14T15:58:18;11.40;99.90
35746;DHT22;21870;42.812;74.628;2023-03-14T16:00:44;11.40;99.90
35746;DHT22;21870;42.812;74.628;2023-03-14T16:03:10;11.30;99.90
35746;DHT22;21870;42.812;74.628;2023-03-14T16:05:38;11.30;99.90
35746;DHT22;21870;42.812;74.628;2023-03-14T16:08:05;11.20;99.90
35746;DHT22;21870;42.812;74.628;2023-03-14T16:10:31;11.30;99.90
35746;DHT22;21870;42.812;74.628;2023-03-14T16:12:58;11.20;99.90
35746;DHT22;21870;42.812;74.628;2023-03-14T16:15:24;11.30;99.90
35746;DHT22;21870;42.812;74.628;2023-03-14T16:17:55;11.30;99.90
35746;DHT22;21870;42.812;74.628;2023-03-14T16:20:22;11.20;99.90
35746;DHT22;21870;42.812;74.628;2023-03-14T16:22:49;11.20;99.90
35746;DHT22;21870;42.812;74.628;2023-03-14T16:25:15;11.20;99.90
35746;DHT22;21870;42.812;74.628;2023-03-14T16:27:43;11.10;99.90
35746;DHT22;21870;42.812;74.628;2023-03-14T16:30:10;11.10;99.90
35746;DHT22;21870;42.812;74.628;2023-03-14T16:32:36;11.10;99.90
35746;DHT22;21870;42.812;74.628;2023-03-14T16:35:06;11.10;99.90
35746;DHT22;21870;42.812;74.628;2023-03-14T16:37:32;11.00;99.90
35746;DHT22;21870;42.812;74.628;2023-03-14T16:39:58;10.90;99.90
35746;DHT22;21870;42.812;74.628;2023-03-14T16:42:24;10.90;99.90